createdAt,value
2022-08-25T00:08:26.889Z,17.80
2022-08-25T00:30:16.777Z,17.00
2022-08-25T00:52:05.933Z,17.60
2022-08-25T01:13:55.640Z,18.60
2022-08-25T01:57:26.322Z,20.40
2022-08-25T02:19:13.362Z,19.90
2022-08-25T02:40:59.890Z,22.40
2022-08-25T03:02:46.886Z,20.40
2022-08-25T03:24:32.722Z,20.90
2022-08-25T03:46:23.413Z,18.20
2022-08-25T04:08:09.360Z,19.50
2022-08-25T04:29:55.112Z,17.80
2022-08-25T04:51:42.517Z,17.50
2022-08-25T05:13:28.912Z,19.10
2022-08-25T05:35:16.249Z,18.00
2022-08-25T05:57:02.430Z,17.90
2022-08-25T06:18:48.197Z,22.30
2022-08-25T06:40:34.013Z,19.50
2022-08-25T07:02:21.864Z,20.10
2022-08-25T07:24:11.158Z,21.80
2022-08-25T07:45:57.160Z,14.10
2022-08-25T08:07:43.991Z,15.30
2022-08-25T08:29:30.157Z,9.10
2022-08-25T08:51:24.632Z,5.90
2022-08-25T09:13:19.258Z,5.60
2022-08-25T09:35:07.350Z,5.00
2022-08-25T09:56:55.506Z,5.20
2022-08-25T10:18:41.495Z,5.80
2022-08-25T10:40:34.123Z,5.30
2022-08-25T11:02:54.596Z,4.90
2022-08-25T11:24:58.260Z,4.90
2022-08-25T11:46:55.352Z,5.40
2022-08-25T12:09:15.929Z,5.10
2022-08-25T12:31:08.677Z,5.50
2022-08-25T12:52:56.232Z,4.70
2022-08-25T13:14:44.000Z,6.20
2022-08-25T13:36:54.077Z,6.60
2022-08-25T13:58:46.475Z,5.70
2022-08-25T14:20:34.201Z,6.50
2022-08-25T14:42:20.320Z,5.60
2022-08-25T15:04:10.548Z,5.90
2022-08-25T15:25:58.527Z,5.50
2022-08-25T15:47:44.424Z,5.70
2022-08-25T16:09:31.472Z,5.50
2022-08-25T16:31:20.726Z,5.50
2022-08-25T16:53:24.382Z,5.80
2022-08-25T17:15:11.509Z,6.10
2022-08-25T17:36:58.145Z,6.20
2022-08-25T17:58:44.587Z,6.60
2022-08-25T18:20:30.766Z,5.60
2022-08-25T18:42:16.583Z,6.30
2022-08-25T19:04:02.663Z,9.70
2022-08-25T19:25:48.502Z,6.40
2022-08-25T19:47:34.217Z,8.00
2022-08-25T20:09:36.048Z,6.30
2022-08-25T20:31:26.608Z,7.30
2022-08-25T20:53:13.522Z,8.40
2022-08-25T21:14:59.822Z,9.10
2022-08-25T21:36:47.943Z,7.50
2022-08-25T21:58:35.333Z,7.20
2022-08-25T22:20:21.320Z,7.70
2022-08-25T22:42:08.649Z,6.50
2022-08-25T23:03:54.464Z,8.50
2022-08-25T23:25:43.418Z,6.80
2022-08-25T23:47:29.308Z,7.50
